Chatsworth, Illinois
Current Conditions -  °F | °C
As of 12:35 PM on Monday 26 Jan 2015 (Local Time) from KPNT Reporting Station
Light Snow Light Snow  
Wind Chill: 22°   Ceiling: 3600
Heat Index: 28°   Visibility: 5mi
Dew Point: 22°   Wind: 6mph
Humidity: 78%   Direction: 200°SSW
Pressure: 29.91"   Gusts: NA
Location:  40.75°N, 88.29°W
Report Text: KPNT 261835Z AUTO 20005KT 5SM -SN SCT017 BKN036 OVC050 M02/M06 A2991 RMK AO2 T10231056
Loading
Personal Weather Stations






























Interactive Weather Map New forecast layout! Learn more

10-Day Weather Forecast

Advertisements
Track Severe Weather on mobile